Time;durP1;ratioP1;P1;durP2;ratioP2;P2;SDS_P1;SDS_P2;PMS_P1;PMS_P2;Temp;Humidity;BMP_temperature;BMP_pressure;BME280_temperature;BME280_humidity;BME280_pressure;Samples;Min_cycle;Max_cycle;Signal;HPM_P1;HPM_P2
2021/06/14 07:30:55;;;;;;;9.90;6.90;;;21.90;99.90;;;;;;5832466;23;20083;-84
2021/06/14 07:33:22;;;;;;;10.10;8.02;;;21.80;99.90;;;;;;4988091;28;20049;-83
2021/06/14 07:35:49;;;;;;;9.43;7.85;;;21.80;99.90;;;;;;4992613;28;20106;-83
2021/06/14 07:38:16;;;;;;;13.30;7.78;;;21.80;99.90;;;;;;4991555;28;20105;-84
2021/06/14 07:40:44;;;;;;;10.48;8.25;;;21.80;99.90;;;;;;4994697;28;20934;-83
2021/06/14 07:43:14;;;;;;;11.13;7.33;;;21.90;99.90;;;;;;4956154;28;20105;-83
2021/06/14 07:45:43;;;;;;;8.73;7.40;;;21.90;99.90;;;;;;4990039;28;20792;-84
2021/06/14 07:48:11;;;;;;;10.00;7.72;;;22.00;99.90;;;;;;4962134;28;20085;-84
2021/06/14 07:50:41;;;;;;;7.90;6.17;;;22.00;99.90;;;;;;4988937;28;20047;-84
2021/06/14 07:53:08;;;;;;;10.52;6.00;;;22.00;99.90;;;;;;4953154;28;20301;-84
2021/06/14 07:55:36;;;;;;;8.88;5.90;;;21.90;99.90;;;;;;4993035;28;20078;-83
2021/06/14 07:58:05;;;;;;;7.90;5.57;;;22.00;99.90;;;;;;4972208;28;20089;-84
2021/06/14 08:00:33;;;;;;;9.05;5.82;;;22.10;99.90;;;;;;4974758;28;20054;-84
2021/06/14 08:03:00;;;;;;;6.22;4.95;;;22.10;99.90;;;;;;4983064;28;20046;-85
2021/06/14 08:05:27;;;;;;;8.65;5.05;;;22.20;99.90;;;;;;4982322;28;20050;-84
2021/06/14 08:08:09;;;;;;;8.93;5.30;;;22.20;99.90;;;;;;4991721;28;20050;-83
2021/06/14 08:10:36;;;;;;;7.90;5.10;;;22.20;99.90;;;;;;4974498;28;20062;-83
2021/06/14 08:13:03;;;;;;;8.20;5.10;;;22.30;99.90;;;;;;4975577;28;20078;-84
2021/06/14 08:15:32;;;;;;;7.05;4.65;;;22.30;99.90;;;;;;4981970;28;20053;-84
2021/06/14 08:18:46;;;;;;;7.93;4.38;;;22.40;99.90;;;;;;4966362;28;20054;-83
2021/06/14 08:26:27;;;;;;;11.10;5.78;;;22.70;99.90;;;;;;4927761;28;20098;-83
2021/06/14 08:28:57;;;;;;;9.05;6.32;;;22.80;99.90;;;;;;4931124;29;20094;-84
2021/06/14 08:31:25;;;;;;;8.70;6.70;;;22.70;99.90;;;;;;4914084;29;20064;-83
2021/06/14 08:33:52;;;;;;;7.78;6.28;;;22.60;99.90;;;;;;4916682;29;20131;-83
2021/06/14 08:36:20;;;;;;;12.65;6.53;;;22.60;99.90;;;;;;4939259;29;20466;-83
2021/06/14 08:38:48;;;;;;;7.70;5.83;;;22.60;99.90;;;;;;4955450;28;20077;-82
2021/06/14 08:41:17;;;;;;;8.43;5.75;;;22.50;99.90;;;;;;4949812;28;20417;-84
2021/06/14 08:43:47;;;;;;;12.88;6.60;;;22.50;99.90;;;;;;4945811;29;20059;-83
2021/06/14 08:46:15;;;;;;;9.25;6.70;;;22.40;99.90;;;;;;4946811;29;20111;-83
2021/06/14 08:48:43;;;;;;;10.55;6.65;;;22.50;99.90;;;;;;4944997;28;20051;-81
2021/06/14 08:51:12;;;;;;;11.00;7.03;;;22.60;99.90;;;;;;4943967;28;20100;-84
2021/06/14 08:53:40;;;;;;;8.43;7.53;;;22.60;99.90;;;;;;4946145;28;20063;-84
2021/06/14 08:56:07;;;;;;;;;;;22.50;99.90;;;;;;4939506;28;20178;-83
2021/06/14 08:58:35;;;;;;;9.43;8.40;;;22.50;99.90;;;;;;4955245;28;19922;-83
2021/06/14 09:01:04;;;;;;;11.93;7.88;;;22.60;99.90;;;;;;4959358;28;20065;-84
2021/06/14 09:03:31;;;;;;;14.52;7.88;;;22.60;99.90;;;;;;4990823;28;20054;-83
2021/06/14 09:05:58;;;;;;;11.23;6.95;;;22.80;99.90;;;;;;4971707;28;20179;-82
2021/06/14 09:08:25;;;;;;;12.40;8.70;;;23.10;99.90;;;;;;4983404;28;20069;-83
2021/06/14 09:10:54;;;;;;;8.95;6.63;;;23.00;99.90;;;;;;4984069;28;20465;-84
2021/06/14 09:13:26;;;;;;;10.40;6.60;;;23.00;99.90;;;;;;4972322;28;20117;-83
2021/06/14 09:16:13;;;;;;;10.27;6.40;;;23.00;99.90;;;;;;4987953;28;20049;-82
2021/06/14 09:18:43;;;;;;;9.10;6.22;;;23.10;99.90;;;;;;4990530;28;20046;-83
2021/06/14 09:21:30;;;;;;;8.18;6.38;;;23.30;99.90;;;;;;4984090;28;20497;-83
2021/06/14 09:23:59;;;;;;;10.02;5.75;;;23.40;99.90;;;;;;4988937;28;20050;-86
2021/06/14 09:26:31;;;;;;;7.95;6.32;;;23.40;99.90;;;;;;4974348;28;20054;-84
2021/06/14 09:29:09;;;;;;;9.40;5.80;;;23.50;99.90;;;;;;4973786;28;20086;-84
2021/06/14 09:31:38;;;;;;;;;;;23.60;99.90;;;;;;4971940;28;20485;-83
2021/06/14 09:34:05;;;;;;;7.93;5.40;;;23.80;99.90;;;;;;4982705;28;19929;-84
2021/06/14 09:36:33;;;;;;;6.25;5.28;;;24.00;99.90;;;;;;4985792;28;20047;-83
2021/06/14 09:39:09;;;;;;;7.90;5.60;;;24.10;99.90;;;;;;4971563;28;20069;-83
2021/06/14 09:41:42;;;;;;;9.10;6.18;;;24.30;99.90;;;;;;4969714;28;20063;-82
2021/06/14 09:44:10;;;;;;;7.15;5.28;;;24.40;99.90;;;;;;4988579;28;20065;-84
2021/06/14 09:46:37;;;;;;;7.72;6.03;;;24.40;99.90;;;;;;4986582;28;20051;-84
2021/06/14 09:49:05;;;;;;;9.43;5.00;;;24.50;99.90;;;;;;4980140;28;20050;-83
2021/06/14 09:51:35;;;;;;;6.80;4.85;;;24.70;99.90;;;;;;4974317;28;20046;-84
2021/06/14 09:54:04;;;;;;;7.30;5.05;;;24.80;99.90;;;;;;4986287;28;20069;-84
2021/06/14 09:56:36;;;;;;;9.55;5.28;;;24.90;99.90;;;;;;4985977;28;20042;-85
2021/06/14 09:59:07;;;;;;;8.25;4.75;;;24.90;99.90;;;;;;4988011;28;20054;-83
2021/06/14 10:01:36;;;;;;;6.25;4.68;;;24.90;99.90;;;;;;4988848;28;20053;-85
2021/06/14 10:04:12;;;;;;;8.38;5.30;;;25.00;99.90;;;;;;4988088;28;20054;-84
2021/06/14 10:06:42;;;;;;;8.75;5.53;;;25.00;99.90;;;;;;4966468;28;20090;-84
2021/06/14 10:09:12;;;;;;;6.90;4.55;;;25.00;99.90;;;;;;4985502;28;20050;-84
2021/06/14 10:11:43;;;;;;;6.20;4.10;;;25.10;99.90;;;;;;4988001;28;20139;-83
2021/06/14 10:14:19;;;;;;;8.82;5.32;;;25.00;99.90;;;;;;4981990;28;20042;-84
2021/06/14 10:16:52;;;;;;;7.10;4.80;;;25.20;99.90;;;;;;4970512;28;20519;-83
2021/06/14 10:19:19;;;;;;;7.95;4.10;;;25.20;99.90;;;;;;4971824;28;20066;-84
2021/06/14 10:21:50;;;;;;;9.27;5.20;;;25.20;99.90;;;;;;4990158;28;20460;-84
2021/06/14 10:24:20;;;;;;;7.50;6.10;;;25.20;99.90;;;;;;4980877;28;20054;-84
2021/06/14 10:26:51;;;;;;;8.60;6.13;;;25.30;99.90;;;;;;4972663;28;20109;-85
2021/06/14 10:29:19;;;;;;;6.60;5.75;;;25.30;99.90;;;;;;4983242;28;20612;-83
2021/06/14 10:31:49;;;;;;;8.75;6.03;;;25.40;99.90;;;;;;4979661;28;20584;-84
2021/06/14 10:34:16;;;;;;;10.15;5.90;;;25.40;99.90;;;;;;4967502;28;20055;-83
2021/06/14 10:36:54;;;;;;;6.28;5.43;;;25.30;99.90;;;;;;4986231;28;20583;-82
2021/06/14 10:39:24;;;;;;;7.83;5.10;;;25.50;99.90;;;;;;4985175;28;20045;-84
2021/06/14 10:41:52;;;;;;;8.07;4.78;;;25.50;99.90;;;;;;4963857;28;20062;-84
2021/06/14 10:44:19;;;;;;;6.75;5.10;;;25.60;99.90;;;;;;4964491;28;20505;-84
2021/06/14 10:46:47;;;;;;;9.57;4.93;;;25.40;99.90;;;;;;4987621;28;20073;-84
2021/06/14 10:49:15;;;;;;;;;;;25.40;99.90;;;;;;4970589;28;20047;-84
2021/06/14 10:51:45;;;;;;;5.30;3.65;;;25.40;99.90;;;;;;4989358;28;20284;-85
2021/06/14 10:54:15;;;;;;;5.82;3.70;;;25.70;99.90;;;;;;4969823;28;20126;-83
2021/06/14 10:56:43;;;;;;;5.30;3.70;;;25.80;99.90;;;;;;4976187;28;20055;-86
2021/06/14 10:59:14;;;;;;;5.95;3.30;;;25.90;99.90;;;;;;4981462;28;20169;-84
2021/06/14 11:01:46;;;;;;;4.03;2.88;;;25.90;99.30;;;;;;4979088;28;20051;-85
2021/06/14 11:04:25;;;;;;;5.28;3.05;;;26.00;98.90;;;;;;4971258;28;20098;-85
2021/06/14 11:06:54;;;;;;;3.67;2.67;;;26.00;97.40;;;;;;4965739;28;20047;-84
2021/06/14 11:09:23;;;;;;;4.30;3.00;;;26.10;97.90;;;;;;4986030;28;20416;-84
2021/06/14 11:11:54;;;;;;;3.22;2.80;;;26.20;97.30;;;;;;4987218;28;20501;-85
2021/06/14 11:14:32;;;;;;;2.70;2.50;;;26.20;97.30;;;;;;4965864;28;20433;-85
2021/06/14 11:17:17;;;;;;;3.20;2.47;;;26.20;96.50;;;;;;4982555;28;20050;-85
2021/06/14 11:19:47;;;;;;;5.75;3.17;;;26.40;97.40;;;;;;4972850;28;20125;-86
2021/06/14 11:22:17;;;;;;;5.47;2.90;;;26.50;97.60;;;;;;4983424;28;20152;-85
2021/06/14 11:24:45;;;;;;;5.97;3.28;;;26.50;96.90;;;;;;4968566;28;20082;-89
2021/06/14 11:27:13;;;;;;;4.22;2.65;;;26.60;96.70;;;;;;4979952;28;20051;-85
2021/06/14 11:29:51;;;;;;;2.90;2.70;;;26.50;96.50;;;;;;4986335;28;20050;-85
2021/06/14 11:32:20;;;;;;;;;;;26.60;96.10;;;;;;4965695;28;20799;-86
2021/06/14 11:34:54;;;;;;;4.22;2.70;;;26.50;96.10;;;;;;4981880;28;20304;-84
2021/06/14 11:37:21;;;;;;;3.83;3.10;;;26.60;96.10;;;;;;4986508;28;20521;-86
2021/06/14 11:40:00;;;;;;;3.80;3.10;;;26.60;96.90;;;;;;4987361;28;20464;-84
2021/06/14 11:42:29;;;;;;;;;;;26.40;97.50;;;;;;4970439;28;20121;-86
2021/06/14 11:44:59;;;;;;;9.65;3.55;;;26.30;96.10;;;;;;4985588;28;19946;-86
2021/06/14 11:47:28;;;;;;;6.50;3.72;;;26.10;96.40;;;;;;4974533;28;20047;-86
2021/06/14 11:50:00;;;;;;;7.07;3.42;;;26.00;97.20;;;;;;4970793;28;20054;-86
2021/06/14 11:52:35;;;;;;;7.50;3.67;;;26.00;97.60;;;;;;4983836;28;20046;-85
2021/06/14 11:55:10;;;;;;;7.32;4.35;;;26.10;97.80;;;;;;4971379;28;20042;-86
2021/06/14 11:57:43;;;;;;;7.75;3.97;;;26.00;97.30;;;;;;4987190;28;20118;-85
2021/06/14 12:00:24;;;;;;;4.93;4.10;;;26.20;98.30;;;;;;4987295;28;20113;-86
2021/06/14 12:02:51;;;;;;;7.47;3.85;;;26.30;98.20;;;;;;4989682;28;20042;-86
2021/06/14 12:05:32;;;;;;;9.50;3.65;;;26.30;98.00;;;;;;4988753;28;20528;-87
2021/06/14 12:08:01;;;;;;;5.97;3.53;;;26.40;97.30;;;;;;4975046;28;20054;-85
2021/06/14 12:10:28;;;;;;;5.05;3.58;;;26.40;97.60;;;;;;4975489;28;20093;-86
2021/06/14 12:13:10;;;;;;;7.43;3.88;;;26.30;97.50;;;;;;4991992;28;20081;-86
2021/06/14 12:15:40;;;;;;;6.82;4.20;;;26.30;97.80;;;;;;4970404;28;20042;-86
2021/06/14 12:18:08;;;;;;;4.95;3.60;;;26.20;97.60;;;;;;4984796;28;20038;-86
2021/06/14 12:20:37;;;;;;;7.20;3.90;;;26.20;97.80;;;;;;4972240;28;20068;-92
2021/06/14 12:23:14;;;;;;;4.43;3.47;;;26.30;97.80;;;;;;4986754;28;20424;-86
2021/06/14 12:25:50;;;;;;;6.00;3.90;;;26.40;98.00;;;;;;4991727;28;20068;-87
2021/06/14 12:28:20;;;;;;;5.25;3.90;;;26.50;97.80;;;;;;4976881;28;20089;-85
2021/06/14 12:30:51;;;;;;;7.43;4.22;;;26.50;97.00;;;;;;4974972;28;20081;-85
2021/06/14 12:33:32;;;;;;;7.90;4.47;;;26.50;97.90;;;;;;4991031;28;20124;-87
2021/06/14 12:35:59;;;;;;;10.60;4.43;;;26.40;97.50;;;;;;4974455;28;20046;-86
2021/06/14 12:38:31;;;;;;;6.30;4.03;;;26.30;97.50;;;;;;4981960;28;20398;-87
2021/06/14 12:41:00;;;;;;;8.68;4.95;;;26.20;97.80;;;;;;4974981;28;20066;-89
2021/06/14 12:43:32;;;;;;;4.90;4.25;;;26.30;97.80;;;;;;4988045;28;20089;-85
2021/06/14 12:45:59;;;;;;;5.32;3.92;;;26.40;98.30;;;;;;4970446;28;20057;-86
2021/06/14 12:48:26;;;;;;;4.72;4.05;;;26.50;98.40;;;;;;4974367;28;20051;-86
2021/06/14 12:50:56;;;;;;;7.80;4.28;;;26.60;98.70;;;;;;4970614;28;20047;-84
2021/06/14 12:53:25;;;;;;;6.75;4.32;;;26.70;98.80;;;;;;4973232;28;20050;-85
2021/06/14 12:55:57;;;;;;;10.60;4.28;;;26.80;98.70;;;;;;4984888;28;20078;-84
2021/06/14 12:58:26;;;;;;;6.35;4.50;;;26.90;98.90;;;;;;4975141;28;20066;-85
2021/06/14 13:00:59;;;;;;;6.03;3.83;;;26.80;98.10;;;;;;4983721;28;20047;-86
2021/06/14 13:03:28;;;;;;;7.30;4.15;;;26.90;98.40;;;;;;4972378;28;20046;-86
2021/06/14 13:05:55;;;;;;;8.25;4.25;;;27.10;98.10;;;;;;4987246;28;20054;-84
2021/06/14 13:08:41;;;;;;;7.90;4.00;;;27.10;97.80;;;;;;4968721;28;20480;-86
2021/06/14 13:11:09;;;;;;;5.47;3.60;;;27.10;97.50;;;;;;4984636;28;20294;-85
2021/06/14 13:13:42;;;;;;;9.68;4.35;;;27.00;97.50;;;;;;4966770;28;20054;-85
2021/06/14 13:16:16;;;;;;;6.53;3.60;;;27.20;97.70;;;;;;4969137;28;20078;-86
2021/06/14 13:18:57;;;;;;;5.68;3.58;;;27.20;97.80;;;;;;4987533;28;20046;-85
2021/06/14 13:21:28;;;;;;;7.03;3.42;;;27.30;97.50;;;;;;4972228;28;20528;-86
2021/06/14 13:24:03;;;;;;;5.93;3.42;;;27.30;97.40;;;;;;4987866;28;20050;-87
2021/06/14 13:26:45;;;;;;;5.00;3.50;;;27.40;97.00;;;;;;4969581;28;20047;-83
2021/06/14 13:29:26;;;;;;;4.25;3.03;;;27.50;96.10;;;;;;4978686;28;20571;-84
2021/06/14 13:32:21;;;;;;;5.80;3.10;;;27.40;95.00;;;;;;4987144;28;20141;-86
2021/06/14 13:34:57;;;;;;;5.38;2.95;;;27.50;94.80;;;;;;4987814;28;20070;-85
2021/06/14 13:37:35;;;;;;;6.40;2.88;;;27.50;94.30;;;;;;4974120;28;20058;-86
2021/06/14 13:40:10;;;;;;;5.22;3.15;;;27.50;94.40;;;;;;4987706;28;20046;-84
2021/06/14 13:42:43;;;;;;;3.67;2.90;;;27.60;94.60;;;;;;4973209;28;20046;-86
2021/06/14 13:45:10;;;;;;;5.18;2.95;;;27.70;94.20;;;;;;4988418;28;20050;-86
2021/06/14 13:47:37;;;;;;;4.87;2.73;;;27.80;94.40;;;;;;4989146;28;20093;-85
2021/06/14 13:50:08;;;;;;;3.72;2.60;;;27.70;94.30;;;;;;4984833;28;20046;-84
2021/06/14 13:52:36;;;;;;;5.68;2.97;;;27.80;94.20;;;;;;4980154;28;20042;-83
2021/06/14 13:55:05;;;;;;;5.07;3.10;;;28.00;94.30;;;;;;4981571;28;20101;-83
2021/06/14 13:57:32;;;;;;;3.60;2.67;;;28.00;93.60;;;;;;4981115;28;20058;-84
2021/06/14 14:00:14;;;;;;;4.22;2.45;;;28.10;93.80;;;;;;4974241;28;20092;-84
2021/06/14 14:02:46;;;;;;;4.65;2.63;;;28.20;93.60;;;;;;4986266;28;20050;-83
2021/06/14 14:05:35;;;;;;;4.85;2.40;;;28.30;92.80;;;;;;4964514;28;20042;-84
2021/06/14 14:08:06;;;;;;;4.45;2.92;;;28.20;93.00;;;;;;4968033;28;20049;-85
2021/06/14 14:10:34;;;;;;;5.57;2.80;;;28.20;93.00;;;;;;4986089;28;20465;-83
2021/06/14 14:13:02;;;;;;;4.38;2.72;;;28.30;92.90;;;;;;4986772;28;20050;-84
2021/06/14 14:15:33;;;;;;;7.28;2.67;;;28.40;92.70;;;;;;4972268;28;20046;-84
2021/06/14 14:18:01;;;;;;;2.93;2.60;;;28.50;92.70;;;;;;4970909;28;20042;-84
2021/06/14 14:20:28;;;;;;;;;;;28.60;92.70;;;;;;4987470;28;20042;-84
2021/06/14 14:22:56;;;;;;;4.13;2.42;;;28.60;92.10;;;;;;4988457;28;20340;-85
2021/06/14 14:25:23;;;;;;;4.15;2.60;;;28.60;92.10;;;;;;4973764;28;20505;-84
2021/06/14 14:27:50;;;;;;;4.75;2.40;;;28.60;92.20;;;;;;4984505;28;20046;-85
2021/06/14 14:30:17;;;;;;;3.03;2.40;;;28.30;91.60;;;;;;4982801;28;20111;-85
2021/06/14 14:32:45;;;;;;;3.78;2.20;;;28.20;91.70;;;;;;4972412;28;20074;-85
2021/06/14 14:35:21;;;;;;;6.00;2.20;;;28.10;91.60;;;;;;4971954;28;20055;-85
2021/06/14 14:37:56;;;;;;;4.55;2.30;;;27.90;91.40;;;;;;4971287;28;20054;-83
2021/06/14 14:40:26;;;;;;;5.57;2.25;;;27.90;91.90;;;;;;4972804;28;20501;-84
2021/06/14 14:42:54;;;;;;;6.22;2.25;;;27.90;91.90;;;;;;4986101;28;20051;-85
2021/06/14 14:45:25;;;;;;;5.57;2.57;;;27.90;91.40;;;;;;4984715;28;20121;-86
2021/06/14 14:47:59;;;;;;;3.35;1.90;;;27.90;91.20;;;;;;4987113;28;20096;-85
2021/06/14 14:50:27;;;;;;;8.05;2.17;;;27.90;90.90;;;;;;4988685;28;20458;-85
2021/06/14 14:52:55;;;;;;;2.70;2.08;;;27.80;91.00;;;;;;4981422;28;20528;-85
2021/06/14 14:55:27;;;;;;;8.17;2.30;;;27.70;91.10;;;;;;4981979;28;20051;-85
2021/06/14 14:57:57;;;;;;;6.45;2.33;;;27.70;91.00;;;;;;4981626;28;20078;-84
2021/06/14 15:00:25;;;;;;;4.82;2.20;;;27.80;90.20;;;;;;4984822;28;20061;-85
2021/06/14 15:02:53;;;;;;;4.82;2.08;;;27.80;90.40;;;;;;4983583;28;20409;-85
2021/06/14 15:05:21;;;;;;;5.53;2.13;;;27.80;90.70;;;;;;4976969;28;20114;-85
2021/06/14 15:07:48;;;;;;;5.57;2.30;;;27.80;90.60;;;;;;4960840;28;20453;-86
2021/06/14 15:10:17;;;;;;;6.65;2.10;;;27.80;90.50;;;;;;4969525;28;20105;-86
2021/06/14 15:12:44;;;;;;;8.82;2.50;;;27.80;90.10;;;;;;4977215;28;20505;-86
2021/06/14 15:15:13;;;;;;;4.32;1.80;;;27.70;90.40;;;;;;4980035;28;20050;-85
2021/06/14 15:17:42;;;;;;;5.03;2.42;;;27.60;90.70;;;;;;4976783;28;20043;-85
2021/06/14 15:20:10;;;;;;;;;;;27.60;90.50;;;;;;4959016;28;20050;-85
2021/06/14 15:22:38;;;;;;;3.95;1.90;;;27.50;90.10;;;;;;4980581;28;19953;-85
2021/06/14 15:25:07;;;;;;;6.63;2.40;;;27.50;90.60;;;;;;4980171;28;20141;-86
2021/06/14 15:27:38;;;;;;;5.88;1.95;;;27.60;90.40;;;;;;4975143;28;20046;-85
2021/06/14 15:30:18;;;;;;;3.03;2.20;;;27.60;90.40;;;;;;4977835;28;20105;-86
2021/06/14 15:32:48;;;;;;;3.55;1.92;;;27.70;90.00;;;;;;4974271;28;20129;-86
2021/06/14 15:35:19;;;;;;;2.60;2.00;;;27.70;90.00;;;;;;4978169;28;20054;-86
2021/06/14 15:37:49;;;;;;;2.53;1.95;;;27.80;89.30;;;;;;4980990;28;20145;-88
2021/06/14 15:40:21;;;;;;;4.82;2.08;;;27.90;89.00;;;;;;4977378;28;20218;-85
2021/06/14 15:42:49;;;;;;;4.68;2.30;;;27.90;88.00;;;;;;4977829;28;20187;-85
2021/06/14 15:45:20;;;;;;;4.13;1.80;;;27.80;86.90;;;;;;4978649;28;20047;-85
2021/06/14 15:47:49;;;;;;;2.65;2.00;;;27.70;85.30;;;;;;4983556;28;20050;-84
2021/06/14 15:50:18;;;;;;;2.47;1.70;;;27.60;85.20;;;;;;4963582;28;20058;-85
2021/06/14 15:52:45;;;;;;;4.95;1.80;;;27.40;85.10;;;;;;4978494;28;20062;-84
2021/06/14 15:55:14;;;;;;;4.75;1.90;;;27.30;85.30;;;;;;4980634;28;20051;-84
2021/06/14 15:57:43;;;;;;;5.60;2.03;;;27.40;85.20;;;;;;4984302;28;20043;-84
2021/06/14 16:00:11;;;;;;;4.80;2.08;;;27.30;84.40;;;;;;4978777;28;20059;-85
2021/06/14 16:02:40;;;;;;;2.88;1.85;;;27.30;85.30;;;;;;4984516;28;20086;-87
2021/06/14 16:05:12;;;;;;;1.95;1.40;;;27.30;84.50;;;;;;4967062;28;20062;-87
2021/06/14 16:07:39;;;;;;;4.47;1.80;;;27.20;83.90;;;;;;4970753;28;20063;-87
2021/06/14 16:10:08;;;;;;;5.82;1.90;;;27.10;83.60;;;;;;4981330;28;20054;-85
2021/06/14 16:12:35;;;;;;;;;;;27.10;83.80;;;;;;4988934;28;20066;-85
2021/06/14 16:15:04;;;;;;;4.87;2.30;;;27.00;84.70;;;;;;4985610;28;19976;-84
2021/06/14 16:17:31;;;;;;;5.60;2.30;;;27.00;85.20;;;;;;4969655;28;20043;-86
2021/06/14 16:19:58;;;;;;;3.70;2.53;;;27.10;85.70;;;;;;4981673;28;20047;-85
2021/06/14 16:22:24;;;;;;;8.30;2.75;;;27.00;86.20;;;;;;4982331;28;20520;-85
2021/06/14 16:24:51;;;;;;;6.20;2.38;;;27.00;86.50;;;;;;4986421;28;20073;-83
2021/06/14 16:27:19;;;;;;;5.72;2.60;;;26.90;87.10;;;;;;4989040;28;20604;-86
2021/06/14 16:29:46;;;;;;;5.20;2.25;;;26.90;88.30;;;;;;4985622;28;20136;-86
2021/06/14 16:32:13;;;;;;;4.85;2.20;;;27.10;89.40;;;;;;4971421;28;20137;-88
2021/06/14 16:34:41;;;;;;;4.65;2.55;;;27.10;89.40;;;;;;4971669;28;20090;-86
2021/06/14 16:37:08;;;;;;;6.75;2.58;;;27.20;89.80;;;;;;4983557;28;20075;-86
2021/06/14 16:39:35;;;;;;;6.25;2.50;;;27.20;89.70;;;;;;4983212;28;20097;-86
2021/06/14 16:42:02;;;;;;;5.43;2.20;;;27.30;89.60;;;;;;4969623;28;20144;-86
2021/06/14 16:44:29;;;;;;;5.30;2.10;;;27.40;88.30;;;;;;4984411;28;20050;-86
2021/06/14 16:46:56;;;;;;;2.80;2.00;;;27.30;88.20;;;;;;4979787;28;20466;-88
2021/06/14 16:49:24;;;;;;;4.55;2.00;;;27.20;87.60;;;;;;4971649;28;20043;-88
2021/06/14 16:51:52;;;;;;;3.97;2.00;;;27.20;86.60;;;;;;4986430;28;20074;-86
2021/06/14 16:54:19;;;;;;;8.35;2.22;;;27.20;86.10;;;;;;4977003;28;20294;-89
2021/06/14 16:56:47;;;;;;;3.05;1.30;;;27.30;85.40;;;;;;4979104;28;20105;-88
2021/06/14 16:59:15;;;;;;;3.35;1.63;;;27.30;81.80;;;;;;4981075;28;20117;-87
2021/06/14 17:01:43;;;;;;;2.35;1.40;;;27.10;81.10;;;;;;4971762;28;20054;-85
2021/06/14 17:04:10;;;;;;;8.25;2.42;;;27.10;81.40;;;;;;4965085;28;20050;-86
2021/06/14 17:06:40;;;;;;;3.42;1.75;;;27.10;81.90;;;;;;4989122;28;20492;-84
2021/06/14 17:09:10;;;;;;;1.95;1.80;;;27.00;82.70;;;;;;4982399;28;20104;-86
2021/06/14 17:11:38;;;;;;;3.35;2.00;;;27.00;83.40;;;;;;4965693;28;20105;-85
2021/06/14 17:14:06;;;;;;;3.30;1.90;;;27.00;83.80;;;;;;4981312;28;20591;-87
2021/06/14 17:16:33;;;;;;;3.73;2.23;;;26.90;83.50;;;;;;4982056;28;20101;-88
2021/06/14 17:19:00;;;;;;;4.22;2.10;;;26.90;84.10;;;;;;4969124;28;20300;-85
2021/06/14 17:21:27;;;;;;;3.20;2.00;;;26.80;83.80;;;;;;4981645;28;20074;-85
2021/06/14 17:23:54;;;;;;;5.35;2.13;;;26.80;83.30;;;;;;4966949;28;20070;-88
2021/06/14 17:26:21;;;;;;;5.50;2.30;;;26.90;83.50;;;;;;4987880;28;20045;-88
2021/06/14 17:28:48;;;;;;;4.10;2.08;;;27.00;84.00;;;;;;4965699;28;20128;-92
2021/06/14 17:31:17;;;;;;;3.22;2.05;;;26.80;83.30;;;;;;4988741;28;20054;-90
2021/06/14 17:33:45;;;;;;;4.20;2.05;;;26.90;84.00;;;;;;4969247;28;20053;-87
2021/06/14 17:36:13;;;;;;;4.90;2.75;;;26.90;84.40;;;;;;4986442;28;20129;-87
2021/06/14 17:38:40;;;;;;;3.10;2.20;;;27.10;84.40;;;;;;4969084;28;20050;-87
2021/06/14 17:41:08;;;;;;;3.15;2.20;;;27.30;83.90;;;;;;4979919;28;20043;-87
2021/06/14 17:43:35;;;;;;;4.05;2.30;;;27.30;83.30;;;;;;4984585;28;20066;-88
2021/06/14 17:46:02;;;;;;;4.70;2.30;;;27.50;83.60;;;;;;4989374;28;20074;-86
2021/06/14 17:48:31;;;;;;;5.35;2.38;;;27.70;82.70;;;;;;4988385;28;20121;-87
2021/06/14 17:51:02;;;;;;;3.40;2.17;;;27.80;82.40;;;;;;4973980;28;20047;-87
2021/06/14 17:53:29;;;;;;;3.58;2.30;;;28.00;82.40;;;;;;4986069;28;20050;-87
2021/06/14 17:55:56;;;;;;;4.53;2.10;;;28.40;81.60;;;;;;4973510;28;20055;-87
2021/06/14 17:58:23;;;;;;;6.15;2.00;;;28.80;81.30;;;;;;4985617;28;20116;-87
2021/06/14 18:00:50;;;;;;;2.58;1.88;;;29.30;80.60;;;;;;4972692;28;20047;-86
2021/06/14 18:03:17;;;;;;;4.65;2.40;;;29.70;78.90;;;;;;4988799;28;20050;-87
2021/06/14 18:05:44;;;;;;;4.15;2.17;;;30.10;78.20;;;;;;4990589;28;20120;-87
2021/06/14 18:08:13;;;;;;;4.60;2.22;;;30.40;77.80;;;;;;4983836;28;20097;-89
2021/06/14 18:10:41;;;;;;;4.57;2.40;;;30.60;77.20;;;;;;4972288;28;20116;-87
2021/06/14 18:13:08;;;;;;;3.53;2.45;;;30.60;76.80;;;;;;4971701;28;20133;-87
2021/06/14 18:15:35;;;;;;;3.53;2.20;;;30.60;77.30;;;;;;4975561;28;20132;-86
2021/06/14 18:18:03;;;;;;;5.47;2.33;;;30.80;77.20;;;;;;4987921;28;20125;-87
2021/06/14 18:20:33;;;;;;;6.18;2.50;;;31.10;76.00;;;;;;4989539;28;20042;-87
2021/06/14 18:23:01;;;;;;;7.10;3.30;;;31.10;77.00;;;;;;4987698;28;20066;-89
2021/06/14 18:25:29;;;;;;;9.13;3.55;;;30.80;79.10;;;;;;4971065;28;20113;-86
2021/06/14 18:27:57;;;;;;;10.65;3.50;;;30.20;80.70;;;;;;4968481;28;20121;-87
2021/06/14 18:30:27;;;;;;;7.45;3.67;;;30.10;81.60;;;;;;4975978;28;20563;-85
2021/06/14 18:33:08;;;;;;;8.65;3.83;;;29.80;82.20;;;;;;4947174;28;20426;-86
2021/06/14 18:35:37;;;;;;;7.65;3.55;;;29.30;83.20;;;;;;4950117;28;20043;-86
2021/06/14 18:38:07;;;;;;;7.47;4.15;;;29.10;84.00;;;;;;4960209;28;20071;-83
2021/06/14 18:40:34;;;;;;;8.70;3.80;;;29.50;84.00;;;;;;4951897;28;20047;-85
2021/06/14 18:43:01;;;;;;;6.53;3.70;;;29.40;83.90;;;;;;4950182;28;20051;-85
2021/06/14 18:45:28;;;;;;;10.82;3.90;;;29.70;83.90;;;;;;4957727;28;20055;-86
2021/06/14 18:47:55;;;;;;;8.90;4.20;;;29.60;84.00;;;;;;4954473;28;20043;-85
2021/06/14 18:50:23;;;;;;;12.37;4.17;;;29.50;84.60;;;;;;4936454;28;20058;-86
2021/06/14 18:52:52;;;;;;;8.55;4.47;;;29.00;85.30;;;;;;4946157;28;20502;-86
2021/06/14 18:55:19;;;;;;;9.52;4.13;;;29.00;85.90;;;;;;4959801;28;20059;-91
2021/06/14 18:57:46;;;;;;;6.90;4.40;;;28.80;86.70;;;;;;4968651;28;20454;-88
2021/06/14 19:00:13;;;;;;;6.95;4.50;;;28.20;88.10;;;;;;4945291;28;20071;-88
2021/06/14 19:02:48;;;;;;;5.57;4.15;;;28.30;88.80;;;;;;4950122;28;20048;-87
2021/06/14 19:05:19;;;;;;;9.55;4.53;;;27.90;89.40;;;;;;4937143;28;20118;-86
2021/06/14 19:07:47;;;;;;;6.75;4.60;;;27.60;90.00;;;;;;4957718;28;20058;-85
2021/06/14 19:10:15;;;;;;;8.98;5.05;;;27.20;90.40;;;;;;4940803;28;20051;-87
2021/06/14 19:12:43;;;;;;;7.78;4.22;;;26.90;90.60;;;;;;4943261;28;20082;-89
2021/06/14 19:15:10;;;;;;;10.50;4.78;;;26.60;90.80;;;;;;4949834;28;20050;-86
2021/06/14 19:17:37;;;;;;;7.85;4.10;;;26.60;90.80;;;;;;4941617;28;20063;-87
2021/06/14 19:20:06;;;;;;;8.13;4.43;;;26.10;91.10;;;;;;4943602;28;20479;-85
2021/06/14 19:22:34;;;;;;;12.85;4.93;;;25.60;91.60;;;;;;4949599;28;20502;-86
2021/06/14 19:25:01;;;;;;;12.40;4.50;;;25.10;92.20;;;;;;4950331;28;20743;-84
2021/06/14 19:27:27;;;;;;;8.90;5.28;;;24.80;92.40;;;;;;4959529;28;20051;-83
2021/06/14 19:29:54;;;;;;;8.88;5.22;;;24.40;92.80;;;;;;4948516;28;20509;-87
2021/06/14 19:32:22;;;;;;;13.02;5.20;;;24.00;93.30;;;;;;4973108;28;20588;-85
2021/06/14 19:34:50;;;;;;;10.67;5.57;;;23.50;93.70;;;;;;4981064;28;20132;-84
2021/06/14 19:37:18;;;;;;;8.57;4.95;;;22.90;94.60;;;;;;4980236;28;20043;-85
2021/06/14 19:39:45;;;;;;;8.27;4.78;;;22.30;95.20;;;;;;4963291;28;20442;-84
2021/06/14 19:42:13;;;;;;;8.10;4.75;;;21.90;95.30;;;;;;4979275;28;20050;-83
2021/06/14 19:44:40;;;;;;;11.73;5.20;;;21.60;95.50;;;;;;4970785;28;20055;-85
2021/06/14 19:47:08;;;;;;;11.38;4.80;;;21.30;95.90;;;;;;4979333;28;20050;-83
2021/06/14 19:49:35;;;;;;;8.25;4.72;;;21.10;96.00;;;;;;4979503;28;20062;-83
2021/06/14 19:52:04;;;;;;;7.03;4.13;;;20.80;96.30;;;;;;4980324;28;20054;-84
2021/06/14 19:54:31;;;;;;;9.60;3.75;;;20.70;96.40;;;;;;4983972;28;20547;-82
2021/06/14 19:56:58;;;;;;;6.40;3.90;;;20.50;96.40;;;;;;4981486;28;20529;-84
2021/06/14 19:59:25;;;;;;;8.27;3.85;;;20.30;96.60;;;;;;4982640;28;20493;-86
2021/06/14 20:01:52;;;;;;;6.80;4.00;;;20.30;96.60;;;;;;4982064;28;20500;-82
2021/06/14 20:04:20;;;;;;;8.05;3.85;;;20.20;96.70;;;;;;4963094;28;20518;-85
2021/06/14 20:06:47;;;;;;;6.88;3.60;;;20.10;96.60;;;;;;4980466;28;20050;-84
2021/06/14 20:09:14;;;;;;;7.57;3.60;;;20.00;96.50;;;;;;4967211;28;20042;-84
2021/06/14 20:11:46;;;;;;;6.53;4.20;;;19.90;96.60;;;;;;4964645;28;20548;-84
2021/06/14 20:14:14;;;;;;;8.07;3.63;;;19.80;96.60;;;;;;4965734;28;20046;-83
2021/06/14 20:16:41;;;;;;;6.28;3.95;;;19.70;96.70;;;;;;4964226;28;20081;-85
2021/06/14 20:19:09;;;;;;;7.60;3.85;;;19.70;96.80;;;;;;4979499;28;20555;-84
2021/06/14 20:21:36;;;;;;;6.03;3.83;;;19.60;96.80;;;;;;4983596;28;20132;-82
2021/06/14 20:24:03;;;;;;;7.18;3.60;;;19.50;97.00;;;;;;4979142;28;21956;-83
2021/06/14 20:26:30;;;;;;;7.50;3.58;;;19.50;97.10;;;;;;4971814;28;20043;-85
2021/06/14 20:28:57;;;;;;;7.97;3.80;;;19.40;97.40;;;;;;4967920;28;20054;-84
2021/06/14 20:31:25;;;;;;;5.90;3.70;;;19.30;97.50;;;;;;4988939;28;20105;-84
2021/06/14 20:33:53;;;;;;;9.38;4.00;;;19.30;97.70;;;;;;4970602;28;20046;-85
2021/06/14 20:36:20;;;;;;;6.40;3.50;;;19.20;97.80;;;;;;4967826;28;20125;-84